sensor_id;sensor_type;location;lat;lon;timestamp;temperature;humidity
18043;DHT22;9146;48.074;11.968;2023-09-30T00:01:58;16.10;99.90
18043;DHT22;9146;48.074;11.968;2023-09-30T00:04:25;16.00;99.90
18043;DHT22;9146;48.074;11.968;2023-09-30T00:06:53;15.90;99.90
18043;DHT22;9146;48.074;11.968;2023-09-30T00:09:20;15.90;99.90
18043;DHT22;9146;48.074;11.968;2023-09-30T00:11:47;15.80;99.90
18043;DHT22;9146;48.074;11.968;2023-09-30T00:14:15;15.80;99.90
18043;DHT22;9146;48.074;11.968;2023-09-30T00:16:43;15.70;99.90
18043;DHT22;9146;48.074;11.968;2023-09-30T00:19:10;15.70;99.90
18043;DHT22;9146;48.074;11.968;2023-09-30T00:21:39;15.70;99.90
18043;DHT22;9146;48.074;11.968;2023-09-30T00:24:06;15.70;99.90
18043;DHT22;9146;48.074;11.968;2023-09-30T00:26:33;15.80;99.90
18043;DHT22;9146;48.074;11.968;2023-09-30T00:29:00;15.80;99.90
18043;DHT22;9146;48.074;11.968;2023-09-30T00:31:34;15.80;99.90
18043;DHT22;9146;48.074;11.968;2023-09-30T00:34:01;15.80;99.90
18043;DHT22;9146;48.074;11.968;2023-09-30T00:36:28;15.90;99.90
18043;DHT22;9146;48.074;11.968;2023-09-30T00:38:55;15.90;99.90
18043;DHT22;9146;48.074;11.968;2023-09-30T00:41:21;16.00;99.90
18043;DHT22;9146;48.074;11.968;2023-09-30T00:43:48;16.10;99.90
18043;DHT22;9146;48.074;11.968;2023-09-30T00:46:21;16.10;99.90
18043;DHT22;9146;48.074;11.968;2023-09-30T00:48:52;16.10;99.90
18043;DHT22;9146;48.074;11.968;2023-09-30T00:51:19;16.10;99.90
18043;DHT22;9146;48.074;11.968;2023-09-30T00:53:46;16.10;99.90
18043;DHT22;9146;48.074;11.968;2023-09-30T00:56:14;16.10;99.90
18043;DHT22;9146;48.074;11.968;2023-09-30T00:58:42;16.10;99.90
18043;DHT22;9146;48.074;11.968;2023-09-30T01:01:09;16.10;99.90
18043;DHT22;9146;48.074;11.968;2023-09-30T01:03:36;16.10;99.90
18043;DHT22;9146;48.074;11.968;2023-09-30T01:06:05;16.10;99.90
18043;DHT22;9146;48.074;11.968;2023-09-30T01:08:32;16.00;99.90
18043;DHT22;9146;48.074;11.968;2023-09-30T01:11:00;16.00;99.90
18043;DHT22;9146;48.074;11.968;2023-09-30T01:13:32;16.00;99.90
18043;DHT22;9146;48.074;11.968;2023-09-30T01:16:03;15.90;99.90
18043;DHT22;9146;48.074;11.968;2023-09-30T01:18:30;15.90;99.90
18043;DHT22;9146;48.074;11.968;2023-09-30T01:20:57;15.90;99.90
18043;DHT22;9146;48.074;11.968;2023-09-30T01:23:27;15.90;99.90
18043;DHT22;9146;48.074;11.968;2023-09-30T01:25:54;15.90;99.90
18043;DHT22;9146;48.074;11.968;2023-09-30T01:28:21;15.90;99.90
18043;DHT22;9146;48.074;11.968;2023-09-30T01:30:48;15.90;99.90
18043;DHT22;9146;48.074;11.968;2023-09-30T01:33:16;15.90;99.90
18043;DHT22;9146;48.074;11.968;2023-09-30T01:35:44;15.90;99.90
18043;DHT22;9146;48.074;11.968;2023-09-30T01:38:11;15.90;99.90
18043;DHT22;9146;48.074;11.968;2023-09-30T01:40:40;15.90;99.90
18043;DHT22;9146;48.074;11.968;2023-09-30T01:43:07;15.90;99.90
18043;DHT22;9146;48.074;11.968;2023-09-30T01:45:34;15.90;99.90
18043;DHT22;9146;48.074;11.968;2023-09-30T01:48:02;15.80;99.90
18043;DHT22;9146;48.074;11.968;2023-09-30T01:50:29;15.80;99.90
18043;DHT22;9146;48.074;11.968;2023-09-30T01:52:57;15.80;99.90
18043;DHT22;9146;48.074;11.968;2023-09-30T01:55:23;15.80;99.90
18043;DHT22;9146;48.074;11.968;2023-09-30T01:57:53;15.80;99.90
18043;DHT22;9146;48.074;11.968;2023-09-30T02:00:20;15.80;99.90
18043;DHT22;9146;48.074;11.968;2023-09-30T02:02:47;15.80;99.90
18043;DHT22;9146;48.074;11.968;2023-09-30T02:05:14;15.90;99.90
18043;DHT22;9146;48.074;11.968;2023-09-30T02:07:41;15.90;99.90
18043;DHT22;9146;48.074;11.968;2023-09-30T02:10:09;15.80;99.90
18043;DHT22;9146;48.074;11.968;2023-09-30T02:12:36;15.80;99.90
18043;DHT22;9146;48.074;11.968;2023-09-30T02:15:06;15.70;99.90
18043;DHT22;9146;48.074;11.968;2023-09-30T02:17:33;15.70;99.90
18043;DHT22;9146;48.074;11.968;2023-09-30T02:20:00;15.70;99.90
18043;DHT22;9146;48.074;11.968;2023-09-30T02:22:31;15.60;99.90
18043;DHT22;9146;48.074;11.968;2023-09-30T02:24:58;15.60;99.90
18043;DHT22;9146;48.074;11.968;2023-09-30T02:27:25;15.50;99.90
18043;DHT22;9146;48.074;11.968;2023-09-30T02:29:53;15.50;99.90
18043;DHT22;9146;48.074;11.968;2023-09-30T02:32:21;15.50;99.90
18043;DHT22;9146;48.074;11.968;2023-09-30T02:34:49;15.50;99.90
18043;DHT22;9146;48.074;11.968;2023-09-30T02:37:17;15.50;99.90
18043;DHT22;9146;48.074;11.968;2023-09-30T02:39:44;15.50;99.90
18043;DHT22;9146;48.074;11.968;2023-09-30T02:42:11;15.60;99.90
18043;DHT22;9146;48.074;11.968;2023-09-30T02:44:38;15.60;99.90
18043;DHT22;9146;48.074;11.968;2023-09-30T02:47:05;15.60;99.90
18043;DHT22;9146;48.074;11.968;2023-09-30T02:49:34;15.60;99.90
18043;DHT22;9146;48.074;11.968;2023-09-30T02:52:01;15.60;99.90
18043;DHT22;9146;48.074;11.968;2023-09-30T02:54:31;15.60;99.90
18043;DHT22;9146;48.074;11.968;2023-09-30T02:56:58;15.60;99.90
18043;DHT22;9146;48.074;11.968;2023-09-30T02:59:25;15.60;99.90
18043;DHT22;9146;48.074;11.968;2023-09-30T03:01:52;15.60;99.90
18043;DHT22;9146;48.074;11.968;2023-09-30T03:04:19;15.60;99.90
18043;DHT22;9146;48.074;11.968;2023-09-30T03:06:48;15.50;99.90
18043;DHT22;9146;48.074;11.968;2023-09-30T03:09:15;15.40;99.90
18043;DHT22;9146;48.074;11.968;2023-09-30T03:11:42;15.40;99.90
18043;DHT22;9146;48.074;11.968;2023-09-30T03:14:10;15.30;99.90
18043;DHT22;9146;48.074;11.968;2023-09-30T03:16:38;15.20;99.90
18043;DHT22;9146;48.074;11.968;2023-09-30T03:19:06;15.10;99.90
18043;DHT22;9146;48.074;11.968;2023-09-30T03:21:34;15.10;99.90
18043;DHT22;9146;48.074;11.968;2023-09-30T03:24:03;15.20;99.90
18043;DHT22;9146;48.074;11.968;2023-09-30T03:26:31;15.10;99.90
18043;DHT22;9146;48.074;11.968;2023-09-30T03:28:58;15.10;99.90
18043;DHT22;9146;48.074;11.968;2023-09-30T03:31:25;15.10;99.90
18043;DHT22;9146;48.074;11.968;2023-09-30T03:33:53;15.10;99.90
18043;DHT22;9146;48.074;11.968;2023-09-30T03:36:20;15.10;99.90
18043;DHT22;9146;48.074;11.968;2023-09-30T03:38:48;15.20;99.90
18043;DHT22;9146;48.074;11.968;2023-09-30T03:41:16;15.20;99.90
18043;DHT22;9146;48.074;11.968;2023-09-30T03:43:45;15.20;99.90
18043;DHT22;9146;48.074;11.968;2023-09-30T03:46:13;15.30;99.90
18043;DHT22;9146;48.074;11.968;2023-09-30T03:48:41;15.30;99.90
18043;DHT22;9146;48.074;11.968;2023-09-30T03:51:09;15.30;99.90
18043;DHT22;9146;48.074;11.968;2023-09-30T03:53:39;15.30;99.90
18043;DHT22;9146;48.074;11.968;2023-09-30T03:56:06;15.30;99.90
18043;DHT22;9146;48.074;11.968;2023-09-30T03:58:34;15.30;99.90
18043;DHT22;9146;48.074;11.968;2023-09-30T04:01:03;15.30;99.90
18043;DHT22;9146;48.074;11.968;2023-09-30T04:03:30;15.40;99.90
18043;DHT22;9146;48.074;11.968;2023-09-30T04:05:58;15.40;99.90
18043;DHT22;9146;48.074;11.968;2023-09-30T04:08:25;15.40;99.90
18043;DHT22;9146;48.074;11.968;2023-09-30T04:10:52;15.30;99.90
18043;DHT22;9146;48.074;11.968;2023-09-30T04:13:19;15.40;99.90
18043;DHT22;9146;48.074;11.968;2023-09-30T04:15:48;15.30;99.90
18043;DHT22;9146;48.074;11.968;2023-09-30T04:18:15;15.30;99.90
18043;DHT22;9146;48.074;11.968;2023-09-30T04:20:42;15.20;99.90
18043;DHT22;9146;48.074;11.968;2023-09-30T04:23:10;15.20;99.90
18043;DHT22;9146;48.074;11.968;2023-09-30T04:25:38;15.20;99.90
18043;DHT22;9146;48.074;11.968;2023-09-30T04:28:05;15.20;99.90
18043;DHT22;9146;48.074;11.968;2023-09-30T04:30:34;15.20;99.90
18043;DHT22;9146;48.074;11.968;2023-09-30T04:33:03;15.20;99.90
18043;DHT22;9146;48.074;11.968;2023-09-30T04:35:31;15.20;99.90
18043;DHT22;9146;48.074;11.968;2023-09-30T04:38:00;15.10;99.90
18043;DHT22;9146;48.074;11.968;2023-09-30T04:40:29;15.10;99.90
18043;DHT22;9146;48.074;11.968;2023-09-30T04:42:58;15.10;99.90
18043;DHT22;9146;48.074;11.968;2023-09-30T04:45:25;15.10;99.90
18043;DHT22;9146;48.074;11.968;2023-09-30T04:47:52;15.10;99.90
18043;DHT22;9146;48.074;11.968;2023-09-30T04:50:23;15.00;99.90
18043;DHT22;9146;48.074;11.968;2023-09-30T04:52:50;15.00;99.90
18043;DHT22;9146;48.074;11.968;2023-09-30T04:55:18;15.00;99.90
18043;DHT22;9146;48.074;11.968;2023-09-30T04:57:45;15.00;99.90
18043;DHT22;9146;48.074;11.968;2023-09-30T05:00:13;15.00;99.90
18043;DHT22;9146;48.074;11.968;2023-09-30T05:02:39;15.00;99.90
18043;DHT22;9146;48.074;11.968;2023-09-30T05:05:07;14.90;99.90
18043;DHT22;9146;48.074;11.968;2023-09-30T05:07:37;14.90;99.90
18043;DHT22;9146;48.074;11.968;2023-09-30T05:10:04;14.90;99.90
18043;DHT22;9146;48.074;11.968;2023-09-30T05:12:33;14.80;99.90
18043;DHT22;9146;48.074;11.968;2023-09-30T05:15:00;14.70;99.90
18043;DHT22;9146;48.074;11.968;2023-09-30T05:17:27;14.70;99.90
18043;DHT22;9146;48.074;11.968;2023-09-30T05:19:56;14.60;99.90
18043;DHT22;9146;48.074;11.968;2023-09-30T05:22:23;14.50;99.90
18043;DHT22;9146;48.074;11.968;2023-09-30T05:24:52;14.50;99.90
18043;DHT22;9146;48.074;11.968;2023-09-30T05:27:19;14.50;99.90
18043;DHT22;9146;48.074;11.968;2023-09-30T05:29:46;14.50;99.90
18043;DHT22;9146;48.074;11.968;2023-09-30T05:32:14;14.50;99.90
18043;DHT22;9146;48.074;11.968;2023-09-30T05:34:41;14.40;99.90
18043;DHT22;9146;48.074;11.968;2023-09-30T05:37:09;14.50;99.90
18043;DHT22;9146;48.074;11.968;2023-09-30T05:39:37;14.50;99.90
18043;DHT22;9146;48.074;11.968;2023-09-30T05:42:06;14.50;99.90
18043;DHT22;9146;48.074;11.968;2023-09-30T05:44:33;14.60;99.90
18043;DHT22;9146;48.074;11.968;2023-09-30T05:47:00;14.60;99.90
18043;DHT22;9146;48.074;11.968;2023-09-30T05:49:27;14.70;99.90
18043;DHT22;9146;48.074;11.968;2023-09-30T05:51:54;14.70;99.90
18043;DHT22;9146;48.074;11.968;2023-09-30T05:54:21;14.80;99.90
18043;DHT22;9146;48.074;11.968;2023-09-30T05:56:49;14.80;99.90
18043;DHT22;9146;48.074;11.968;2023-09-30T05:59:17;14.80;99.90
18043;DHT22;9146;48.074;11.968;2023-09-30T06:01:44;14.80;99.90
18043;DHT22;9146;48.074;11.968;2023-09-30T06:04:11;14.80;99.90
18043;DHT22;9146;48.074;11.968;2023-09-30T06:06:38;14.80;99.90
18043;DHT22;9146;48.074;11.968;2023-09-30T06:09:06;14.80;99.90
18043;DHT22;9146;48.074;11.968;2023-09-30T06:11:34;14.80;99.90
18043;DHT22;9146;48.074;11.968;2023-09-30T06:14:01;14.90;99.90
18043;DHT22;9146;48.074;11.968;2023-09-30T06:16:33;15.00;99.90
18043;DHT22;9146;48.074;11.968;2023-09-30T06:19:00;15.10;99.90
18043;DHT22;9146;48.074;11.968;2023-09-30T06:21:28;15.20;99.90
18043;DHT22;9146;48.074;11.968;2023-09-30T06:23:55;15.30;99.90
18043;DHT22;9146;48.074;11.968;2023-09-30T06:26:22;15.40;99.90
18043;DHT22;9146;48.074;11.968;2023-09-30T06:28:51;15.50;99.90
18043;DHT22;9146;48.074;11.968;2023-09-30T06:31:19;15.60;99.90
18043;DHT22;9146;48.074;11.968;2023-09-30T06:33:48;15.70;99.90
18043;DHT22;9146;48.074;11.968;2023-09-30T06:36:15;15.70;99.90
18043;DHT22;9146;48.074;11.968;2023-09-30T06:38:43;15.60;99.90
18043;DHT22;9146;48.074;11.968;2023-09-30T06:41:15;15.60;99.90
18043;DHT22;9146;48.074;11.968;2023-09-30T06:43:42;15.60;99.90
18043;DHT22;9146;48.074;11.968;2023-09-30T06:46:10;15.60;99.90
18043;DHT22;9146;48.074;11.968;2023-09-30T06:48:37;15.70;99.90
18043;DHT22;9146;48.074;11.968;2023-09-30T06:51:07;15.70;99.90
18043;DHT22;9146;48.074;11.968;2023-09-30T06:53:35;15.80;99.90
18043;DHT22;9146;48.074;11.968;2023-09-30T06:56:04;15.80;99.90
18043;DHT22;9146;48.074;11.968;2023-09-30T06:58:34;15.90;99.90
18043;DHT22;9146;48.074;11.968;2023-09-30T07:01:01;16.00;99.90
18043;DHT22;9146;48.074;11.968;2023-09-30T07:03:28;16.10;99.90
18043;DHT22;9146;48.074;11.968;2023-09-30T07:05:56;16.20;99.90
18043;DHT22;9146;48.074;11.968;2023-09-30T07:08:23;16.30;99.90
18043;DHT22;9146;48.074;11.968;2023-09-30T07:10:51;16.40;99.90
18043;DHT22;9146;48.074;11.968;2023-09-30T07:13:19;16.50;99.90
18043;DHT22;9146;48.074;11.968;2023-09-30T07:15:46;16.60;99.90
18043;DHT22;9146;48.074;11.968;2023-09-30T07:18:13;16.60;99.90
18043;DHT22;9146;48.074;11.968;2023-09-30T07:20:40;16.70;99.90
18043;DHT22;9146;48.074;11.968;2023-09-30T07:23:07;16.80;99.90
18043;DHT22;9146;48.074;11.968;2023-09-30T07:25:36;16.80;99.90
18043;DHT22;9146;48.074;11.968;2023-09-30T07:28:03;16.90;99.90
18043;DHT22;9146;48.074;11.968;2023-09-30T07:30:30;16.90;99.90
18043;DHT22;9146;48.074;11.968;2023-09-30T07:32:57;16.90;99.90
18043;DHT22;9146;48.074;11.968;2023-09-30T07:35:24;17.00;99.90
18043;DHT22;9146;48.074;11.968;2023-09-30T07:37:51;17.00;99.90
18043;DHT22;9146;48.074;11.968;2023-09-30T07:40:18;17.00;99.90
18043;DHT22;9146;48.074;11.968;2023-09-30T07:42:48;17.00;99.90
18043;DHT22;9146;48.074;11.968;2023-09-30T07:45:15;17.10;99.90
18043;DHT22;9146;48.074;11.968;2023-09-30T07:47:44;17.30;99.90
18043;DHT22;9146;48.074;11.968;2023-09-30T07:50:12;17.30;99.90
18043;DHT22;9146;48.074;11.968;2023-09-30T07:52:39;17.30;99.90
18043;DHT22;9146;48.074;11.968;2023-09-30T07:55:08;17.40;99.90
18043;DHT22;9146;48.074;11.968;2023-09-30T07:57:36;17.30;99.90
18043;DHT22;9146;48.074;11.968;2023-09-30T08:00:07;17.30;99.90
18043;DHT22;9146;48.074;11.968;2023-09-30T08:02:40;17.30;99.90
18043;DHT22;9146;48.074;11.968;2023-09-30T08:05:08;17.30;99.90
18043;DHT22;9146;48.074;11.968;2023-09-30T08:07:35;17.40;99.90
18043;DHT22;9146;48.074;11.968;2023-09-30T08:10:03;17.50;99.90
18043;DHT22;9146;48.074;11.968;2023-09-30T08:12:32;17.60;99.90
18043;DHT22;9146;48.074;11.968;2023-09-30T08:14:59;17.60;99.90
18043;DHT22;9146;48.074;11.968;2023-09-30T08:17:27;17.70;99.90
18043;DHT22;9146;48.074;11.968;2023-09-30T08:19:54;17.70;99.90
18043;DHT22;9146;48.074;11.968;2023-09-30T08:22:21;17.80;99.90
18043;DHT22;9146;48.074;11.968;2023-09-30T08:24:53;17.80;99.90
18043;DHT22;9146;48.074;11.968;2023-09-30T08:27:20;17.80;99.90
18043;DHT22;9146;48.074;11.968;2023-09-30T08:29:47;17.90;99.90
18043;DHT22;9146;48.074;11.968;2023-09-30T08:32:14;17.90;99.90
18043;DHT22;9146;48.074;11.968;2023-09-30T08:34:42;17.90;99.90
18043;DHT22;9146;48.074;11.968;2023-09-30T08:37:09;18.00;99.90
18043;DHT22;9146;48.074;11.968;2023-09-30T08:39:38;18.00;99.90
18043;DHT22;9146;48.074;11.968;2023-09-30T08:42:08;18.00;99.90
18043;DHT22;9146;48.074;11.968;2023-09-30T08:44:37;18.10;99.90
18043;DHT22;9146;48.074;11.968;2023-09-30T08:47:05;18.10;99.90
18043;DHT22;9146;48.074;11.968;2023-09-30T08:49:34;18.30;99.90
18043;DHT22;9146;48.074;11.968;2023-09-30T08:52:04;18.40;99.90
18043;DHT22;9146;48.074;11.968;2023-09-30T08:54:31;18.40;99.90
18043;DHT22;9146;48.074;11.968;2023-09-30T08:57:00;18.40;99.90
18043;DHT22;9146;48.074;11.968;2023-09-30T08:59:29;18.40;99.90
18043;DHT22;9146;48.074;11.968;2023-09-30T09:01:57;18.40;99.90
18043;DHT22;9146;48.074;11.968;2023-09-30T09:04:24;18.20;99.90
18043;DHT22;9146;48.074;11.968;2023-09-30T09:06:53;18.20;99.90
18043;DHT22;9146;48.074;11.968;2023-09-30T09:09:22;18.30;99.90
18043;DHT22;9146;48.074;11.968;2023-09-30T09:11:49;18.30;99.90
18043;DHT22;9146;48.074;11.968;2023-09-30T09:14:17;18.40;99.90
18043;DHT22;9146;48.074;11.968;2023-09-30T09:16:54;18.40;99.90
18043;DHT22;9146;48.074;11.968;2023-09-30T09:19:22;18.50;99.90
18043;DHT22;9146;48.074;11.968;2023-09-30T09:21:57;18.50;99.90
18043;DHT22;9146;48.074;11.968;2023-09-30T09:24:29;18.40;99.90
18043;DHT22;9146;48.074;11.968;2023-09-30T09:27:06;18.30;99.90
18043;DHT22;9146;48.074;11.968;2023-09-30T09:29:34;18.20;99.90
18043;DHT22;9146;48.074;11.968;2023-09-30T09:32:09;18.10;99.90
18043;DHT22;9146;48.074;11.968;2023-09-30T09:34:37;17.90;99.90
18043;DHT22;9146;48.074;11.968;2023-09-30T09:37:14;17.80;99.90
18043;DHT22;9146;48.074;11.968;2023-09-30T09:39:50;17.70;99.90
18043;DHT22;9146;48.074;11.968;2023-09-30T09:42:25;17.70;99.90
18043;DHT22;9146;48.074;11.968;2023-09-30T09:44:55;17.70;99.90
18043;DHT22;9146;48.074;11.968;2023-09-30T09:47:23;17.70;99.90
18043;DHT22;9146;48.074;11.968;2023-09-30T09:49:51;17.70;99.90
18043;DHT22;9146;48.074;11.968;2023-09-30T09:52:20;17.90;99.90
18043;DHT22;9146;48.074;11.968;2023-09-30T09:54:47;18.10;99.90
18043;DHT22;9146;48.074;11.968;2023-09-30T09:57:17;18.40;99.90
18043;DHT22;9146;48.074;11.968;2023-09-30T09:59:45;18.60;99.90
18043;DHT22;9146;48.074;11.968;2023-09-30T10:02:13;18.80;99.90
18043;DHT22;9146;48.074;11.968;2023-09-30T10:04:41;19.00;99.90
18043;DHT22;9146;48.074;11.968;2023-09-30T10:07:11;19.10;99.90
18043;DHT22;9146;48.074;11.968;2023-09-30T10:09:44;19.30;99.90
18043;DHT22;9146;48.074;11.968;2023-09-30T10:12:12;19.40;99.90
18043;DHT22;9146;48.074;11.968;2023-09-30T10:14:41;19.50;99.90
18043;DHT22;9146;48.074;11.968;2023-09-30T10:17:08;19.30;99.90
18043;DHT22;9146;48.074;11.968;2023-09-30T10:19:35;19.20;99.90
18043;DHT22;9146;48.074;11.968;2023-09-30T10:22:21;19.20;99.90
18043;DHT22;9146;48.074;11.968;2023-09-30T10:24:49;19.20;99.90
18043;DHT22;9146;48.074;11.968;2023-09-30T10:27:33;19.10;99.90
18043;DHT22;9146;48.074;11.968;2023-09-30T10:30:08;18.90;99.90
18043;DHT22;9146;48.074;11.968;2023-09-30T10:33:07;18.90;99.90
18043;DHT22;9146;48.074;11.968;2023-09-30T10:35:50;18.70;99.90
18043;DHT22;9146;48.074;11.968;2023-09-30T10:38:38;18.70;99.90
18043;DHT22;9146;48.074;11.968;2023-09-30T10:41:08;18.60;99.90
18043;DHT22;9146;48.074;11.968;2023-09-30T10:43:38;18.60;99.90
18043;DHT22;9146;48.074;11.968;2023-09-30T10:46:31;18.60;99.90
18043;DHT22;9146;48.074;11.968;2023-09-30T10:49:30;18.60;99.90
18043;DHT22;9146;48.074;11.968;2023-09-30T10:51:59;18.60;99.90
18043;DHT22;9146;48.074;11.968;2023-09-30T10:54:27;18.70;99.90
18043;DHT22;9146;48.074;11.968;2023-09-30T10:56:55;18.70;99.90
18043;DHT22;9146;48.074;11.968;2023-09-30T10:59:23;18.70;99.90
18043;DHT22;9146;48.074;11.968;2023-09-30T11:01:52;18.80;99.90
18043;DHT22;9146;48.074;11.968;2023-09-30T11:04:20;18.80;99.90
18043;DHT22;9146;48.074;11.968;2023-09-30T11:06:47;18.80;99.90
18043;DHT22;9146;48.074;11.968;2023-09-30T11:09:18;18.80;99.90
18043;DHT22;9146;48.074;11.968;2023-09-30T11:11:46;18.90;99.90
18043;DHT22;9146;48.074;11.968;2023-09-30T11:14:19;19.10;99.90
18043;DHT22;9146;48.074;11.968;2023-09-30T11:16:47;19.20;99.90
18043;DHT22;9146;48.074;11.968;2023-09-30T11:19:15;19.40;99.90
18043;DHT22;9146;48.074;11.968;2023-09-30T11:21:42;19.50;99.90
18043;DHT22;9146;48.074;11.968;2023-09-30T11:24:10;19.60;99.90
18043;DHT22;9146;48.074;11.968;2023-09-30T11:26:38;19.70;99.90
18043;DHT22;9146;48.074;11.968;2023-09-30T11:29:08;19.80;99.90
18043;DHT22;9146;48.074;11.968;2023-09-30T11:31:37;19.90;99.90
18043;DHT22;9146;48.074;11.968;2023-09-30T11:34:05;19.90;99.90
18043;DHT22;9146;48.074;11.968;2023-09-30T11:36:36;19.80;99.90
18043;DHT22;9146;48.074;11.968;2023-09-30T11:39:04;19.60;99.90
18043;DHT22;9146;48.074;11.968;2023-09-30T11:41:35;19.50;99.90
18043;DHT22;9146;48.074;11.968;2023-09-30T11:44:05;19.50;99.90
18043;DHT22;9146;48.074;11.968;2023-09-30T11:46:33;19.40;99.90
18043;DHT22;9146;48.074;11.968;2023-09-30T11:49:25;19.30;99.90
18043;DHT22;9146;48.074;11.968;2023-09-30T11:51:54;19.20;99.90
18043;DHT22;9146;48.074;11.968;2023-09-30T11:54:21;19.20;99.90
18043;DHT22;9146;48.074;11.968;2023-09-30T11:56:48;19.30;99.90
18043;DHT22;9146;48.074;11.968;2023-09-30T11:59:17;19.30;99.90
18043;DHT22;9146;48.074;11.968;2023-09-30T12:01:45;19.30;99.90
18043;DHT22;9146;48.074;11.968;2023-09-30T12:04:14;19.30;99.90
18043;DHT22;9146;48.074;11.968;2023-09-30T12:06:43;19.30;99.90
18043;DHT22;9146;48.074;11.968;2023-09-30T12:09:11;19.30;99.90
18043;DHT22;9146;48.074;11.968;2023-09-30T12:11:40;19.40;99.90
18043;DHT22;9146;48.074;11.968;2023-09-30T12:14:10;19.50;99.90
18043;DHT22;9146;48.074;11.968;2023-09-30T12:16:37;19.60;99.90
18043;DHT22;9146;48.074;11.968;2023-09-30T12:19:04;19.70;99.90
18043;DHT22;9146;48.074;11.968;2023-09-30T12:21:32;19.80;99.90
18043;DHT22;9146;48.074;11.968;2023-09-30T12:24:00;19.80;99.90
18043;DHT22;9146;48.074;11.968;2023-09-30T12:26:29;19.80;99.90
18043;DHT22;9146;48.074;11.968;2023-09-30T12:28:56;19.80;99.90
18043;DHT22;9146;48.074;11.968;2023-09-30T12:31:23;19.80;99.90
18043;DHT22;9146;48.074;11.968;2023-09-30T12:33:50;19.80;99.90
18043;DHT22;9146;48.074;11.968;2023-09-30T12:36:19;19.80;99.90
18043;DHT22;9146;48.074;11.968;2023-09-30T12:38:47;19.90;99.90
18043;DHT22;9146;48.074;11.968;2023-09-30T12:41:14;19.80;99.90
18043;DHT22;9146;48.074;11.968;2023-09-30T12:43:42;19.70;99.90
18043;DHT22;9146;48.074;11.968;2023-09-30T12:46:09;19.60;99.90
18043;DHT22;9146;48.074;11.968;2023-09-30T12:48:39;19.40;99.90
18043;DHT22;9146;48.074;11.968;2023-09-30T12:51:06;19.20;99.90
18043;DHT22;9146;48.074;11.968;2023-09-30T12:53:34;19.10;99.90
18043;DHT22;9146;48.074;11.968;2023-09-30T12:56:01;19.10;99.90
18043;DHT22;9146;48.074;11.968;2023-09-30T12:58:29;19.10;99.90
18043;DHT22;9146;48.074;11.968;2023-09-30T13:00:57;19.10;99.90
18043;DHT22;9146;48.074;11.968;2023-09-30T13:03:24;19.10;99.90
18043;DHT22;9146;48.074;11.968;2023-09-30T13:05:51;19.00;99.90
18043;DHT22;9146;48.074;11.968;2023-09-30T13:08:19;19.00;99.90
18043;DHT22;9146;48.074;11.968;2023-09-30T13:10:46;19.00;99.90
18043;DHT22;9146;48.074;11.968;2023-09-30T13:13:16;19.10;99.90
18043;DHT22;9146;48.074;11.968;2023-09-30T13:15:43;19.10;99.90
18043;DHT22;9146;48.074;11.968;2023-09-30T13:18:11;19.20;99.90
18043;DHT22;9146;48.074;11.968;2023-09-30T13:20:38;19.20;99.90
18043;DHT22;9146;48.074;11.968;2023-09-30T13:23:06;19.20;99.90
18043;DHT22;9146;48.074;11.968;2023-09-30T13:25:33;19.20;99.90
18043;DHT22;9146;48.074;11.968;2023-09-30T13:28:00;19.10;99.90
18043;DHT22;9146;48.074;11.968;2023-09-30T13:30:27;19.20;99.90
18043;DHT22;9146;48.074;11.968;2023-09-30T13:32:54;19.30;99.90
18043;DHT22;9146;48.074;11.968;2023-09-30T13:35:23;19.50;99.90
18043;DHT22;9146;48.074;11.968;2023-09-30T13:37:50;19.50;99.90
18043;DHT22;9146;48.074;11.968;2023-09-30T13:40:17;19.50;99.90
18043;DHT22;9146;48.074;11.968;2023-09-30T13:42:45;19.50;99.90
18043;DHT22;9146;48.074;11.968;2023-09-30T13:45:12;19.40;99.90
18043;DHT22;9146;48.074;11.968;2023-09-30T13:47:42;19.30;99.90
18043;DHT22;9146;48.074;11.968;2023-09-30T13:50:09;19.30;99.90
18043;DHT22;9146;48.074;11.968;2023-09-30T13:52:39;19.30;99.90
18043;DHT22;9146;48.074;11.968;2023-09-30T13:55:06;19.40;99.90
18043;DHT22;9146;48.074;11.968;2023-09-30T13:57:34;19.50;99.90
18043;DHT22;9146;48.074;11.968;2023-09-30T14:00:02;19.50;99.90
18043;DHT22;9146;48.074;11.968;2023-09-30T14:02:32;19.50;99.90
18043;DHT22;9146;48.074;11.968;2023-09-30T14:04:59;19.50;99.90
18043;DHT22;9146;48.074;11.968;2023-09-30T14:07:25;19.50;99.90
18043;DHT22;9146;48.074;11.968;2023-09-30T14:09:55;19.50;99.90
18043;DHT22;9146;48.074;11.968;2023-09-30T14:12:22;19.50;99.90
18043;DHT22;9146;48.074;11.968;2023-09-30T14:14:48;19.40;99.90
18043;DHT22;9146;48.074;11.968;2023-09-30T14:17:17;19.40;99.90
18043;DHT22;9146;48.074;11.968;2023-09-30T14:19:44;19.40;99.90
18043;DHT22;9146;48.074;11.968;2023-09-30T14:22:11;19.30;99.90
18043;DHT22;9146;48.074;11.968;2023-09-30T14:24:38;19.40;99.90
18043;DHT22;9146;48.074;11.968;2023-09-30T14:27:06;19.30;99.90
18043;DHT22;9146;48.074;11.968;2023-09-30T14:29:34;19.30;99.90
18043;DHT22;9146;48.074;11.968;2023-09-30T14:32:01;19.20;99.90
18043;DHT22;9146;48.074;11.968;2023-09-30T14:34:28;19.30;99.90
18043;DHT22;9146;48.074;11.968;2023-09-30T14:36:55;19.20;99.90
18043;DHT22;9146;48.074;11.968;2023-09-30T14:39:22;19.20;99.90
18043;DHT22;9146;48.074;11.968;2023-09-30T14:41:49;19.30;99.90
18043;DHT22;9146;48.074;11.968;2023-09-30T14:44:18;19.30;99.90
18043;DHT22;9146;48.074;11.968;2023-09-30T14:46:47;19.40;99.90
18043;DHT22;9146;48.074;11.968;2023-09-30T14:49:14;19.40;99.90
18043;DHT22;9146;48.074;11.968;2023-09-30T14:51:41;19.50;99.90
18043;DHT22;9146;48.074;11.968;2023-09-30T14:54:10;19.50;99.90
18043;DHT22;9146;48.074;11.968;2023-09-30T14:56:36;19.50;99.90
18043;DHT22;9146;48.074;11.968;2023-09-30T14:59:04;19.50;99.90
18043;DHT22;9146;48.074;11.968;2023-09-30T15:01:32;19.50;99.90
18043;DHT22;9146;48.074;11.968;2023-09-30T15:04:00;19.50;99.90
18043;DHT22;9146;48.074;11.968;2023-09-30T15:06:27;19.50;99.90
18043;DHT22;9146;48.074;11.968;2023-09-30T15:08:54;19.50;99.90
18043;DHT22;9146;48.074;11.968;2023-09-30T15:11:21;19.50;99.90
18043;DHT22;9146;48.074;11.968;2023-09-30T15:13:49;19.40;99.90
18043;DHT22;9146;48.074;11.968;2023-09-30T15:16:17;19.40;99.90
18043;DHT22;9146;48.074;11.968;2023-09-30T15:18:46;19.30;99.90
18043;DHT22;9146;48.074;11.968;2023-09-30T15:21:14;19.20;99.90
18043;DHT22;9146;48.074;11.968;2023-09-30T15:23:41;19.10;99.90
18043;DHT22;9146;48.074;11.968;2023-09-30T15:26:09;19.10;99.90
18043;DHT22;9146;48.074;11.968;2023-09-30T15:28:36;19.10;99.90
18043;DHT22;9146;48.074;11.968;2023-09-30T15:31:03;19.00;99.90
18043;DHT22;9146;48.074;11.968;2023-09-30T15:33:31;18.90;99.90
18043;DHT22;9146;48.074;11.968;2023-09-30T15:35:59;18.90;99.90
18043;DHT22;9146;48.074;11.968;2023-09-30T15:38:26;18.90;99.90